sensor_id;sensor_type;location;lat;lon;timestamp;P1;durP1;ratioP1;P2;durP2;ratioP2
84711;SDS011;74937;44.534;18.684;2023-12-14T13:49:52;60.78;;;37.45;;
84711;SDS011;74937;44.534;18.684;2023-12-14T15:52:44;24.80;;;16.10;;
84711;SDS011;74937;44.534;18.684;2023-12-14T15:55:10;25.55;;;16.08;;
84711;SDS011;74937;44.534;18.684;2023-12-14T15:57:36;41.75;;;24.63;;
84711;SDS011;74937;44.534;18.684;2023-12-14T16:01:18;26.92;;;15.95;;
84711;SDS011;74937;44.534;18.684;2023-12-14T16:08:19;24.60;;;15.48;;
84711;SDS011;74937;44.534;18.684;2023-12-14T16:10:44;23.83;;;13.70;;
84711;SDS011;74937;44.534;18.684;2023-12-14T16:13:13;22.95;;;16.40;;
84711;SDS011;74937;44.534;18.684;2023-12-14T16:15:39;18.77;;;12.73;;
84711;SDS011;74937;44.534;18.684;2023-12-14T16:18:04;23.83;;;13.82;;
84711;SDS011;74937;44.534;18.684;2023-12-14T16:20:30;23.15;;;14.20;;
84711;SDS011;74937;44.534;18.684;2023-12-14T16:22:56;28.40;;;15.80;;
84711;SDS011;74937;44.534;18.684;2023-12-14T16:25:22;35.10;;;20.98;;
84711;SDS011;74937;44.534;18.684;2023-12-14T16:27:47;44.60;;;24.92;;
84711;SDS011;74937;44.534;18.684;2023-12-14T16:30:13;53.70;;;28.00;;
84711;SDS011;74937;44.534;18.684;2023-12-14T16:32:39;47.08;;;26.33;;
84711;SDS011;74937;44.534;18.684;2023-12-14T16:35:05;44.00;;;22.98;;
84711;SDS011;74937;44.534;18.684;2023-12-14T16:37:31;45.17;;;26.48;;
84711;SDS011;74937;44.534;18.684;2023-12-14T16:39:57;52.30;;;27.27;;
84711;SDS011;74937;44.534;18.684;2023-12-14T16:42:23;55.13;;;28.65;;
84711;SDS011;74937;44.534;18.684;2023-12-14T16:44:49;46.75;;;26.13;;
84711;SDS011;74937;44.534;18.684;2023-12-14T16:47:15;108.82;;;60.47;;
84711;SDS011;74937;44.534;18.684;2023-12-14T16:49:41;39.38;;;23.75;;
84711;SDS011;74937;44.534;18.684;2023-12-14T16:52:07;34.55;;;18.63;;
84711;SDS011;74937;44.534;18.684;2023-12-14T16:54:33;28.45;;;17.38;;
84711;SDS011;74937;44.534;18.684;2023-12-14T16:56:59;30.85;;;17.38;;
84711;SDS011;74937;44.534;18.684;2023-12-14T16:59:28;33.17;;;18.23;;
84711;SDS011;74937;44.534;18.684;2023-12-14T17:01:54;31.58;;;15.50;;
84711;SDS011;74937;44.534;18.684;2023-12-14T17:04:19;27.85;;;16.23;;
84711;SDS011;74937;44.534;18.684;2023-12-14T17:06:45;28.75;;;17.10;;
84711;SDS011;74937;44.534;18.684;2023-12-14T17:09:12;37.17;;;22.17;;
84711;SDS011;74937;44.534;18.684;2023-12-14T17:11:37;55.65;;;29.15;;
84711;SDS011;74937;44.534;18.684;2023-12-14T17:14:03;51.60;;;27.27;;
84711;SDS011;74937;44.534;18.684;2023-12-14T17:16:29;45.58;;;25.38;;
84711;SDS011;74937;44.534;18.684;2023-12-14T17:18:55;45.15;;;24.13;;
84711;SDS011;74937;44.534;18.684;2023-12-14T17:26:14;53.45;;;28.48;;
84711;SDS011;74937;44.534;18.684;2023-12-14T17:28:47;49.53;;;31.13;;
84711;SDS011;74937;44.534;18.684;2023-12-14T17:31:18;57.78;;;33.92;;
84711;SDS011;74937;44.534;18.684;2023-12-14T17:33:45;56.47;;;32.55;;
84711;SDS011;74937;44.534;18.684;2023-12-14T17:36:11;51.55;;;30.92;;
84711;SDS011;74937;44.534;18.684;2023-12-14T17:38:38;54.35;;;30.33;;
84711;SDS011;74937;44.534;18.684;2023-12-14T17:41:07;50.78;;;27.60;;
84711;SDS011;74937;44.534;18.684;2023-12-14T17:43:38;49.30;;;27.40;;
84711;SDS011;74937;44.534;18.684;2023-12-14T17:46:04;53.63;;;27.83;;
84711;SDS011;74937;44.534;18.684;2023-12-14T17:48:31;47.67;;;26.48;;
84711;SDS011;74937;44.534;18.684;2023-12-14T17:50:57;44.17;;;25.63;;
84711;SDS011;74937;44.534;18.684;2023-12-14T17:53:23;40.42;;;23.85;;
84711;SDS011;74937;44.534;18.684;2023-12-14T17:55:49;43.85;;;24.52;;
84711;SDS011;74937;44.534;18.684;2023-12-14T17:58:15;40.63;;;22.55;;
84711;SDS011;74937;44.534;18.684;2023-12-14T18:00:41;36.65;;;22.33;;
84711;SDS011;74937;44.534;18.684;2023-12-14T18:03:07;38.28;;;20.77;;
84711;SDS011;74937;44.534;18.684;2023-12-14T18:05:33;31.77;;;19.27;;
84711;SDS011;74937;44.534;18.684;2023-12-14T18:07:59;33.03;;;17.48;;
84711;SDS011;74937;44.534;18.684;2023-12-14T18:10:25;29.10;;;16.77;;
84711;SDS011;74937;44.534;18.684;2023-12-14T18:12:51;22.20;;;14.23;;
84711;SDS011;74937;44.534;18.684;2023-12-14T18:15:18;22.92;;;14.57;;
84711;SDS011;74937;44.534;18.684;2023-12-14T18:17:44;24.38;;;14.18;;
84711;SDS011;74937;44.534;18.684;2023-12-14T18:20:09;24.90;;;15.00;;
84711;SDS011;74937;44.534;18.684;2023-12-14T18:22:35;24.58;;;13.80;;
84711;SDS011;74937;44.534;18.684;2023-12-14T18:25:01;22.40;;;13.18;;
84711;SDS011;74937;44.534;18.684;2023-12-14T18:27:27;23.00;;;13.48;;
84711;SDS011;74937;44.534;18.684;2023-12-14T18:29:53;23.15;;;14.27;;
84711;SDS011;74937;44.534;18.684;2023-12-14T18:32:19;23.00;;;13.77;;
84711;SDS011;74937;44.534;18.684;2023-12-14T18:34:44;23.85;;;15.00;;
84711;SDS011;74937;44.534;18.684;2023-12-14T18:37:11;25.30;;;14.32;;
84711;SDS011;74937;44.534;18.684;2023-12-14T18:39:42;24.27;;;14.40;;
84711;SDS011;74937;44.534;18.684;2023-12-14T18:42:08;24.75;;;14.38;;
84711;SDS011;74937;44.534;18.684;2023-12-14T18:44:34;27.65;;;16.70;;
84711;SDS011;74937;44.534;18.684;2023-12-14T18:47:01;26.58;;;15.05;;
84711;SDS011;74937;44.534;18.684;2023-12-14T18:49:27;27.25;;;17.85;;
84711;SDS011;74937;44.534;18.684;2023-12-14T18:51:53;25.13;;;15.93;;
84711;SDS011;74937;44.534;18.684;2023-12-14T18:54:19;24.30;;;14.90;;
84711;SDS011;74937;44.534;18.684;2023-12-14T18:56:45;27.05;;;16.52;;
84711;SDS011;74937;44.534;18.684;2023-12-14T18:59:11;29.60;;;18.15;;
84711;SDS011;74937;44.534;18.684;2023-12-14T19:01:37;39.17;;;21.35;;
84711;SDS011;74937;44.534;18.684;2023-12-14T19:04:03;37.70;;;21.80;;
84711;SDS011;74937;44.534;18.684;2023-12-14T19:06:29;37.50;;;20.30;;
84711;SDS011;74937;44.534;18.684;2023-12-14T19:08:55;40.15;;;22.27;;
84711;SDS011;74937;44.534;18.684;2023-12-14T19:11:22;30.13;;;18.83;;
84711;SDS011;74937;44.534;18.684;2023-12-14T19:16:27;41.17;;;21.00;;
84711;SDS011;74937;44.534;18.684;2023-12-14T19:19:00;43.45;;;22.85;;
84711;SDS011;74937;44.534;18.684;2023-12-14T19:21:27;42.17;;;23.00;;
84711;SDS011;74937;44.534;18.684;2023-12-14T19:23:53;53.42;;;24.35;;
84711;SDS011;74937;44.534;18.684;2023-12-14T19:26:19;51.47;;;26.13;;
84711;SDS011;74937;44.534;18.684;2023-12-14T19:28:50;67.72;;;32.72;;
84711;SDS011;74937;44.534;18.684;2023-12-14T19:31:17;64.57;;;32.03;;
84711;SDS011;74937;44.534;18.684;2023-12-14T19:33:42;50.90;;;29.20;;
84711;SDS011;74937;44.534;18.684;2023-12-14T19:36:09;46.65;;;25.65;;
84711;SDS011;74937;44.534;18.684;2023-12-14T19:38:42;43.22;;;24.80;;
84711;SDS011;74937;44.534;18.684;2023-12-14T19:41:15;40.75;;;23.80;;
84711;SDS011;74937;44.534;18.684;2023-12-14T19:43:41;42.97;;;23.25;;
84711;SDS011;74937;44.534;18.684;2023-12-14T19:46:10;42.55;;;23.40;;
84711;SDS011;74937;44.534;18.684;2023-12-14T19:48:38;44.20;;;23.80;;
84711;SDS011;74937;44.534;18.684;2023-12-14T19:51:04;37.72;;;21.65;;
84711;SDS011;74937;44.534;18.684;2023-12-14T19:53:30;44.20;;;23.00;;
84711;SDS011;74937;44.534;18.684;2023-12-14T19:55:56;45.58;;;24.15;;
84711;SDS011;74937;44.534;18.684;2023-12-14T19:58:22;46.15;;;23.38;;
84711;SDS011;74937;44.534;18.684;2023-12-14T20:00:47;45.72;;;22.60;;
84711;SDS011;74937;44.534;18.684;2023-12-14T20:03:13;38.40;;;20.17;;
84711;SDS011;74937;44.534;18.684;2023-12-14T20:05:40;36.72;;;20.38;;
84711;SDS011;74937;44.534;18.684;2023-12-14T20:08:11;33.28;;;18.92;;
84711;SDS011;74937;44.534;18.684;2023-12-14T20:10:37;33.75;;;15.68;;
84711;SDS011;74937;44.534;18.684;2023-12-14T20:13:03;23.92;;;14.55;;
84711;SDS011;74937;44.534;18.684;2023-12-14T20:15:40;25.48;;;13.93;;
84711;SDS011;74937;44.534;18.684;2023-12-14T20:18:07;28.60;;;13.80;;
84711;SDS011;74937;44.534;18.684;2023-12-14T20:20:34;26.17;;;13.27;;
84711;SDS011;74937;44.534;18.684;2023-12-14T20:23:03;22.65;;;14.00;;
84711;SDS011;74937;44.534;18.684;2023-12-14T20:25:30;25.55;;;16.13;;
84711;SDS011;74937;44.534;18.684;2023-12-14T20:27:57;28.60;;;17.40;;
84711;SDS011;74937;44.534;18.684;2023-12-14T20:30:24;28.83;;;15.75;;
84711;SDS011;74937;44.534;18.684;2023-12-14T20:32:50;27.88;;;16.38;;
84711;SDS011;74937;44.534;18.684;2023-12-14T20:35:16;30.60;;;17.23;;
84711;SDS011;74937;44.534;18.684;2023-12-14T20:37:43;25.45;;;15.18;;
84711;SDS011;74937;44.534;18.684;2023-12-14T20:40:10;27.73;;;16.00;;
84711;SDS011;74937;44.534;18.684;2023-12-14T20:42:39;24.67;;;14.50;;
84711;SDS011;74937;44.534;18.684;2023-12-14T20:45:06;26.70;;;14.88;;
84711;SDS011;74937;44.534;18.684;2023-12-14T20:47:32;20.98;;;13.20;;
84711;SDS011;74937;44.534;18.684;2023-12-14T20:49:58;22.58;;;13.13;;
84711;SDS011;74937;44.534;18.684;2023-12-14T20:52:24;24.55;;;12.90;;
84711;SDS011;74937;44.534;18.684;2023-12-14T20:54:49;23.38;;;13.75;;
84711;SDS011;74937;44.534;18.684;2023-12-14T20:57:15;21.13;;;13.27;;
84711;SDS011;74937;44.534;18.684;2023-12-14T20:59:41;25.85;;;12.63;;
84711;SDS011;74937;44.534;18.684;2023-12-14T21:02:07;24.02;;;13.30;;
84711;SDS011;74937;44.534;18.684;2023-12-14T21:04:34;22.52;;;12.93;;
84711;SDS011;74937;44.534;18.684;2023-12-14T21:07:00;24.60;;;12.48;;
84711;SDS011;74937;44.534;18.684;2023-12-14T21:09:25;21.10;;;12.88;;
84711;SDS011;74937;44.534;18.684;2023-12-14T21:11:51;20.27;;;12.73;;
84711;SDS011;74937;44.534;18.684;2023-12-14T21:14:17;27.30;;;14.63;;
84711;SDS011;74937;44.534;18.684;2023-12-14T21:16:43;24.30;;;13.85;;
84711;SDS011;74937;44.534;18.684;2023-12-14T21:19:18;28.67;;;15.02;;
84711;SDS011;74937;44.534;18.684;2023-12-14T21:21:47;27.10;;;13.45;;
84711;SDS011;74937;44.534;18.684;2023-12-14T21:24:13;25.83;;;13.82;;
84711;SDS011;74937;44.534;18.684;2023-12-14T21:26:42;20.60;;;13.10;;
84711;SDS011;74937;44.534;18.684;2023-12-14T21:29:32;29.90;;;14.88;;
84711;SDS011;74937;44.534;18.684;2023-12-14T21:31:57;31.17;;;15.57;;
84711;SDS011;74937;44.534;18.684;2023-12-14T21:34:23;35.28;;;16.83;;
84711;SDS011;74937;44.534;18.684;2023-12-14T21:36:49;39.10;;;17.63;;
84711;SDS011;74937;44.534;18.684;2023-12-14T21:39:15;34.53;;;16.40;;
84711;SDS011;74937;44.534;18.684;2023-12-14T21:41:41;25.00;;;12.07;;
84711;SDS011;74937;44.534;18.684;2023-12-14T21:44:06;20.95;;;10.07;;
84711;SDS011;74937;44.534;18.684;2023-12-14T21:46:32;16.38;;;9.20;;
84711;SDS011;74937;44.534;18.684;2023-12-14T21:48:59;14.15;;;8.00;;
84711;SDS011;74937;44.534;18.684;2023-12-14T21:51:25;14.63;;;7.05;;
84711;SDS011;74937;44.534;18.684;2023-12-14T21:53:50;12.77;;;7.85;;
84711;SDS011;74937;44.534;18.684;2023-12-14T21:56:16;11.60;;;6.50;;
84711;SDS011;74937;44.534;18.684;2023-12-14T21:58:42;14.05;;;7.82;;
84711;SDS011;74937;44.534;18.684;2023-12-14T22:01:08;15.00;;;7.57;;
84711;SDS011;74937;44.534;18.684;2023-12-14T22:03:34;17.40;;;8.27;;
84711;SDS011;74937;44.534;18.684;2023-12-14T22:05:59;22.88;;;10.45;;
84711;SDS011;74937;44.534;18.684;2023-12-14T22:08:25;17.98;;;9.45;;
84711;SDS011;74937;44.534;18.684;2023-12-14T22:10:51;20.60;;;10.52;;
84711;SDS011;74937;44.534;18.684;2023-12-14T22:13:18;21.90;;;9.93;;
84711;SDS011;74937;44.534;18.684;2023-12-14T22:15:44;16.58;;;8.85;;
84711;SDS011;74937;44.534;18.684;2023-12-14T22:18:10;15.55;;;8.75;;
84711;SDS011;74937;44.534;18.684;2023-12-14T22:20:35;16.52;;;8.65;;
84711;SDS011;74937;44.534;18.684;2023-12-14T22:23:01;15.90;;;8.98;;
84711;SDS011;74937;44.534;18.684;2023-12-14T22:25:27;17.33;;;9.02;;
84711;SDS011;74937;44.534;18.684;2023-12-14T22:27:52;13.70;;;8.60;;
84711;SDS011;74937;44.534;18.684;2023-12-14T22:30:18;17.40;;;9.68;;
84711;SDS011;74937;44.534;18.684;2023-12-14T22:32:44;18.88;;;10.50;;
84711;SDS011;74937;44.534;18.684;2023-12-14T22:35:10;20.38;;;10.90;;
84711;SDS011;74937;44.534;18.684;2023-12-14T22:37:35;21.98;;;11.38;;
84711;SDS011;74937;44.534;18.684;2023-12-14T22:40:01;19.70;;;11.55;;
84711;SDS011;74937;44.534;18.684;2023-12-14T22:42:28;18.98;;;10.25;;
84711;SDS011;74937;44.534;18.684;2023-12-14T22:44:54;19.50;;;10.48;;
84711;SDS011;74937;44.534;18.684;2023-12-14T22:47:19;18.70;;;11.57;;
84711;SDS011;74937;44.534;18.684;2023-12-14T22:49:45;17.95;;;10.80;;
84711;SDS011;74937;44.534;18.684;2023-12-14T22:52:11;17.67;;;10.40;;
84711;SDS011;74937;44.534;18.684;2023-12-14T22:54:40;20.65;;;10.55;;
84711;SDS011;74937;44.534;18.684;2023-12-14T22:57:06;17.80;;;10.98;;
84711;SDS011;74937;44.534;18.684;2023-12-14T22:59:32;19.92;;;10.32;;
84711;SDS011;74937;44.534;18.684;2023-12-14T23:01:57;18.92;;;9.98;;
84711;SDS011;74937;44.534;18.684;2023-12-14T23:04:23;15.77;;;8.60;;
84711;SDS011;74937;44.534;18.684;2023-12-14T23:06:49;17.75;;;8.95;;
84711;SDS011;74937;44.534;18.684;2023-12-14T23:09:15;18.67;;;9.75;;
84711;SDS011;74937;44.534;18.684;2023-12-14T23:11:41;15.15;;;9.38;;
84711;SDS011;74937;44.534;18.684;2023-12-14T23:14:07;14.68;;;8.32;;
84711;SDS011;74937;44.534;18.684;2023-12-14T23:16:33;16.83;;;9.30;;
84711;SDS011;74937;44.534;18.684;2023-12-14T23:18:59;15.85;;;8.68;;
84711;SDS011;74937;44.534;18.684;2023-12-14T23:21:25;14.10;;;8.80;;
84711;SDS011;74937;44.534;18.684;2023-12-14T23:23:50;15.68;;;8.60;;
84711;SDS011;74937;44.534;18.684;2023-12-14T23:26:16;16.67;;;9.98;;
84711;SDS011;74937;44.534;18.684;2023-12-14T23:28:42;15.48;;;8.07;;
84711;SDS011;74937;44.534;18.684;2023-12-14T23:31:07;15.90;;;7.57;;
84711;SDS011;74937;44.534;18.684;2023-12-14T23:33:33;13.43;;;8.43;;
84711;SDS011;74937;44.534;18.684;2023-12-14T23:35:59;18.15;;;8.43;;
84711;SDS011;74937;44.534;18.684;2023-12-14T23:38:25;19.15;;;9.93;;
84711;SDS011;74937;44.534;18.684;2023-12-14T23:40:51;14.18;;;9.00;;
84711;SDS011;74937;44.534;18.684;2023-12-14T23:43:17;15.02;;;8.65;;
84711;SDS011;74937;44.534;18.684;2023-12-14T23:45:43;17.85;;;9.25;;
84711;SDS011;74937;44.534;18.684;2023-12-14T23:48:08;14.85;;;8.75;;
84711;SDS011;74937;44.534;18.684;2023-12-14T23:50:34;19.48;;;8.93;;
84711;SDS011;74937;44.534;18.684;2023-12-14T23:53:00;14.02;;;7.63;;
84711;SDS011;74937;44.534;18.684;2023-12-14T23:55:25;11.75;;;8.00;;
84711;SDS011;74937;44.534;18.684;2023-12-14T23:57:51;15.68;;;8.50;;
